createdAt,value
2019-02-19T00:02:22.682Z,8.20
2019-02-19T00:04:51.095Z,8.00
2019-02-19T00:07:19.498Z,7.50
2019-02-19T00:09:47.918Z,8.20
2019-02-19T00:12:16.337Z,7.50
2019-02-19T00:14:44.756Z,8.10
2019-02-19T00:17:13.167Z,8.07
2019-02-19T00:19:41.640Z,8.10
2019-02-19T00:22:10.072Z,8.17
2019-02-19T00:24:38.494Z,8.10
2019-02-19T00:27:06.915Z,7.90
2019-02-19T00:29:35.333Z,8.23
2019-02-19T00:32:03.751Z,7.60
2019-02-19T00:34:32.153Z,7.87
2019-02-19T00:37:00.553Z,7.93
2019-02-19T00:39:28.988Z,7.20
2019-02-19T00:41:57.392Z,7.53
2019-02-19T00:44:25.787Z,6.97
2019-02-19T00:46:54.258Z,7.53
2019-02-19T00:49:22.725Z,7.40
2019-02-19T00:51:51.164Z,7.17
2019-02-19T00:54:19.618Z,8.33
2019-02-19T00:56:48.034Z,8.30
2019-02-19T00:59:16.446Z,7.00
2019-02-19T01:01:44.948Z,6.90
2019-02-19T01:04:13.436Z,7.80
2019-02-19T01:06:41.834Z,7.47
2019-02-19T01:09:10.705Z,6.70
2019-02-19T01:11:39.190Z,7.50
2019-02-19T01:14:07.667Z,7.70
2019-02-19T01:16:36.149Z,8.20
2019-02-19T01:19:04.715Z,7.43
2019-02-19T01:21:33.125Z,6.60
2019-02-19T01:24:01.551Z,6.83
2019-02-19T01:26:29.952Z,8.20
2019-02-19T01:28:58.463Z,8.47
2019-02-19T01:31:26.875Z,6.77
2019-02-19T01:33:55.274Z,7.20
2019-02-19T01:36:23.746Z,7.90
2019-02-19T01:38:52.175Z,7.80
2019-02-19T01:41:20.635Z,7.00
2019-02-19T01:43:49.101Z,7.70
2019-02-19T01:46:17.512Z,7.47
2019-02-19T01:48:45.897Z,7.20
2019-02-19T01:51:14.471Z,6.87
2019-02-19T01:53:42.866Z,6.93
2019-02-19T01:56:11.281Z,7.10
2019-02-19T01:58:39.677Z,7.37
2019-02-19T02:01:08.089Z,7.60
2019-02-19T02:03:36.500Z,7.43
2019-02-19T02:06:05.054Z,8.20
2019-02-19T02:08:33.453Z,7.97
2019-02-19T02:11:01.861Z,6.80
2019-02-19T02:13:30.258Z,7.97
2019-02-19T02:15:58.683Z,7.43
2019-02-19T02:18:27.078Z,8.10
2019-02-19T02:20:55.560Z,7.50
2019-02-19T02:23:23.957Z,8.07
2019-02-19T02:25:52.381Z,7.63
2019-02-19T02:28:20.922Z,7.77
2019-02-19T02:30:49.324Z,7.83
2019-02-19T02:33:17.750Z,8.20
2019-02-19T02:35:46.145Z,7.30
2019-02-19T02:38:14.574Z,7.43
2019-02-19T02:40:42.962Z,7.53
2019-02-19T02:43:11.359Z,7.97
2019-02-19T02:45:39.781Z,8.77
2019-02-19T02:48:08.196Z,10.50
2019-02-19T02:50:36.637Z,10.73
2019-02-19T02:53:05.045Z,12.87
2019-02-19T02:55:33.473Z,12.60
2019-02-19T02:58:01.874Z,13.90
2019-02-19T03:00:30.306Z,15.50
2019-02-19T03:02:58.715Z,14.50
2019-02-19T03:05:27.146Z,15.37
2019-02-19T03:07:57.179Z,15.23
2019-02-19T03:10:25.582Z,16.13
2019-02-19T03:12:54.004Z,16.90
2019-02-19T03:15:22.474Z,16.50
2019-02-19T03:17:50.914Z,16.67
2019-02-19T03:20:19.323Z,16.97
2019-02-19T03:22:47.757Z,16.97
2019-02-19T03:25:16.168Z,15.97
2019-02-19T03:27:44.593Z,16.00
2019-02-19T03:30:13.096Z,16.67
2019-02-19T03:32:41.487Z,18.50
2019-02-19T03:35:09.909Z,17.87
2019-02-19T03:37:38.339Z,17.03
2019-02-19T03:40:07.979Z,15.37
2019-02-19T03:42:36.523Z,16.40
2019-02-19T03:45:07.069Z,16.60
2019-02-19T03:47:35.482Z,16.90
2019-02-19T03:50:05.244Z,15.93
2019-02-19T03:52:33.658Z,17.33
2019-02-19T03:55:02.194Z,15.17
2019-02-19T03:57:30.789Z,15.27
2019-02-19T03:59:59.274Z,16.80
2019-02-19T04:02:27.742Z,16.23
2019-02-19T04:04:56.234Z,16.17
2019-02-19T04:07:24.641Z,14.57
2019-02-19T04:09:53.069Z,14.43
2019-02-19T04:12:21.466Z,16.80
2019-02-19T04:14:49.894Z,15.20
2019-02-19T04:17:18.303Z,16.70
2019-02-19T04:19:46.726Z,16.40
2019-02-19T04:22:15.141Z,16.40
2019-02-19T04:24:43.563Z,16.13
2019-02-19T04:27:11.970Z,15.73
2019-02-19T04:29:40.384Z,16.23
2019-02-19T04:32:08.815Z,15.93
2019-02-19T04:34:37.250Z,15.30
2019-02-19T04:37:05.669Z,15.50
2019-02-19T04:39:34.077Z,16.00
2019-02-19T04:42:02.497Z,16.10
2019-02-19T04:44:30.904Z,16.60
2019-02-19T04:46:59.396Z,16.40
2019-02-19T04:49:27.801Z,17.07
2019-02-19T04:51:56.232Z,17.53
2019-02-19T04:54:24.650Z,18.10
2019-02-19T04:56:53.062Z,16.67
2019-02-19T04:59:21.480Z,16.80
2019-02-19T05:01:49.891Z,18.43
2019-02-19T05:04:18.322Z,19.53
2019-02-19T05:06:46.748Z,17.20
2019-02-19T05:09:15.168Z,17.80
2019-02-19T05:11:43.579Z,19.57
2019-02-19T05:14:12.000Z,18.37
2019-02-19T05:16:41.177Z,19.17
2019-02-19T05:19:09.938Z,20.87
2019-02-19T05:21:38.337Z,19.60
2019-02-19T05:24:06.949Z,20.00
2019-02-19T05:26:35.358Z,19.40
2019-02-19T05:29:03.756Z,20.67
2019-02-19T05:31:32.184Z,20.20
2019-02-19T05:34:00.592Z,20.17
2019-02-19T05:36:29.032Z,20.70
2019-02-19T05:38:57.433Z,20.47
2019-02-19T05:41:25.874Z,22.20
2019-02-19T05:43:54.250Z,21.20
2019-02-19T05:46:22.659Z,20.63
2019-02-19T05:48:54.032Z,22.83
2019-02-19T05:51:22.429Z,21.50
2019-02-19T05:53:50.858Z,23.03
2019-02-19T05:56:19.268Z,24.70
2019-02-19T05:58:47.673Z,21.90
2019-02-19T06:01:16.095Z,23.67
2019-02-19T06:03:44.515Z,22.23
2019-02-19T06:06:12.925Z,22.60
2019-02-19T06:08:41.322Z,22.60
2019-02-19T06:11:09.745Z,22.63
2019-02-19T06:13:38.144Z,24.00
2019-02-19T06:16:06.569Z,22.87
2019-02-19T06:18:34.969Z,23.00
2019-02-19T06:21:03.390Z,22.80
2019-02-19T06:23:31.883Z,23.90
2019-02-19T06:26:00.301Z,24.80
2019-02-19T06:28:28.720Z,23.70
2019-02-19T06:30:57.131Z,23.67
2019-02-19T06:33:25.599Z,23.67
2019-02-19T06:35:54.018Z,23.83
2019-02-19T06:38:22.493Z,24.53
2019-02-19T06:40:50.995Z,22.43
2019-02-19T06:43:19.401Z,25.70
2019-02-19T06:45:47.821Z,24.63
2019-02-19T06:48:16.236Z,23.53
2019-02-19T06:50:44.646Z,23.87
2019-02-19T06:53:13.049Z,22.80
2019-02-19T06:55:41.478Z,23.70
2019-02-19T06:58:09.873Z,24.00
2019-02-19T07:00:38.280Z,22.00
2019-02-19T07:03:24.503Z,22.33
2019-02-19T07:05:52.933Z,21.07
2019-02-19T07:08:21.340Z,22.43
2019-02-19T07:10:50.137Z,22.20
2019-02-19T07:13:18.538Z,22.47
2019-02-19T07:15:47.022Z,21.70
2019-02-19T07:18:15.436Z,21.83
2019-02-19T07:20:43.854Z,20.93
2019-02-19T07:23:12.260Z,21.13
2019-02-19T07:25:40.685Z,21.80
2019-02-19T07:28:09.109Z,20.30
2019-02-19T07:30:37.520Z,18.57
2019-02-19T07:33:05.955Z,20.83
2019-02-19T07:35:34.365Z,20.47
2019-02-19T07:38:02.840Z,21.47
2019-02-19T07:40:31.266Z,19.93
2019-02-19T07:42:59.688Z,18.97
2019-02-19T07:45:28.108Z,19.80
2019-02-19T07:47:56.541Z,18.80
2019-02-19T07:50:24.965Z,19.37
2019-02-19T07:52:53.365Z,29.47
2019-02-19T07:55:21.790Z,20.27
2019-02-19T07:57:50.194Z,19.07
2019-02-19T08:00:18.606Z,18.90
2019-02-19T08:02:47.035Z,20.93
2019-02-19T08:05:15.498Z,18.20
2019-02-19T08:07:43.933Z,20.23
2019-02-19T08:10:12.674Z,19.20
2019-02-19T08:12:41.097Z,20.17
2019-02-19T08:15:11.054Z,19.23
2019-02-19T08:17:39.542Z,19.03
2019-02-19T08:20:15.429Z,17.80
2019-02-19T08:22:39.595Z,19.60
2019-02-19T08:25:08.159Z,19.63
2019-02-19T08:27:36.572Z,20.10
2019-02-19T08:30:07.437Z,18.37
2019-02-19T08:32:35.860Z,18.27
2019-02-19T08:35:05.023Z,18.40
2019-02-19T08:37:33.438Z,20.03
2019-02-19T08:40:01.868Z,18.53
2019-02-19T08:42:30.346Z,17.40
2019-02-19T08:44:58.811Z,17.13
2019-02-19T08:47:27.232Z,19.93
2019-02-19T08:49:55.633Z,17.03
2019-02-19T08:52:24.066Z,17.33
2019-02-19T08:54:52.478Z,17.40
2019-02-19T08:57:20.951Z,17.90
2019-02-19T08:59:49.390Z,15.57
2019-02-19T09:02:17.880Z,16.70
2019-02-19T09:04:46.294Z,18.57
2019-02-19T09:07:14.703Z,17.20
2019-02-19T09:09:43.132Z,16.87
2019-02-19T09:12:11.680Z,18.23
2019-02-19T09:14:40.046Z,16.10
2019-02-19T09:17:08.450Z,16.00
2019-02-19T09:19:36.936Z,15.30
2019-02-19T09:22:05.407Z,15.57
2019-02-19T09:24:33.828Z,14.13
2019-02-19T09:27:02.235Z,14.70
2019-02-19T09:29:30.662Z,16.17
2019-02-19T09:31:59.078Z,14.40
2019-02-19T09:34:27.484Z,13.70
2019-02-19T09:36:55.911Z,13.37
2019-02-19T09:39:24.335Z,12.00
2019-02-19T09:41:52.789Z,11.90
2019-02-19T09:44:21.234Z,11.83
2019-02-19T09:46:49.661Z,10.63
2019-02-19T09:49:18.062Z,12.33
2019-02-19T09:51:46.542Z,12.17
2019-02-19T09:54:14.952Z,11.30
2019-02-19T09:56:43.359Z,10.60
2019-02-19T09:59:11.790Z,11.30
2019-02-19T10:01:40.658Z,10.10
2019-02-19T10:04:09.071Z,9.10
2019-02-19T10:06:37.544Z,8.83
2019-02-19T10:09:06.410Z,8.33
2019-02-19T10:11:34.818Z,8.47
2019-02-19T10:14:03.289Z,9.23
2019-02-19T10:16:31.716Z,8.07
2019-02-19T10:19:00.179Z,6.87
2019-02-19T10:21:28.776Z,7.47
2019-02-19T10:23:57.181Z,8.93
2019-02-19T10:26:25.587Z,8.53
2019-02-19T10:28:54.005Z,8.27
2019-02-19T10:31:22.406Z,7.30
2019-02-19T10:33:50.815Z,8.27
2019-02-19T10:36:19.309Z,7.90
2019-02-19T10:38:47.710Z,8.60
2019-02-19T10:41:16.125Z,8.10
2019-02-19T10:43:44.521Z,7.63
2019-02-19T10:46:12.944Z,8.17
2019-02-19T10:48:41.367Z,8.20
2019-02-19T10:51:09.756Z,8.30
2019-02-19T10:53:38.177Z,8.23
2019-02-19T10:56:06.652Z,7.73
2019-02-19T10:58:35.047Z,8.30
2019-02-19T11:01:03.447Z,8.63
2019-02-19T11:03:31.887Z,7.40
2019-02-19T11:06:00.285Z,9.00
2019-02-19T11:08:28.715Z,8.10
2019-02-19T11:10:57.119Z,7.23
2019-02-19T11:13:25.520Z,8.20
2019-02-19T11:15:53.946Z,8.50
2019-02-19T11:18:28.466Z,7.50
2019-02-19T11:20:52.544Z,7.83
2019-02-19T11:23:20.943Z,7.90
2019-02-19T11:25:49.364Z,7.30
2019-02-19T11:28:17.774Z,7.07
2019-02-19T11:30:46.196Z,6.83
2019-02-19T11:33:14.611Z,8.43
2019-02-19T11:35:42.998Z,6.77
2019-02-19T11:38:11.419Z,7.87
2019-02-19T11:40:39.829Z,7.60
2019-02-19T11:43:08.314Z,7.10
2019-02-19T11:45:36.707Z,7.60
2019-02-19T11:48:05.213Z,7.23
2019-02-19T11:50:33.634Z,7.47
2019-02-19T11:53:02.035Z,7.70
2019-02-19T11:55:30.482Z,7.00
2019-02-19T11:57:58.874Z,7.83
2019-02-19T12:00:44.292Z,6.53
2019-02-19T12:03:12.699Z,7.47
2019-02-19T12:05:41.148Z,6.97
2019-02-19T12:08:09.572Z,6.70
2019-02-19T12:10:37.968Z,7.40
2019-02-19T12:13:06.462Z,6.13
2019-02-19T12:15:35.604Z,7.30
2019-02-19T12:18:04.277Z,6.47
2019-02-19T12:20:32.687Z,6.63
2019-02-19T12:23:01.102Z,6.03
2019-02-19T12:25:29.513Z,6.00
2019-02-19T12:27:57.993Z,6.73
2019-02-19T12:30:26.436Z,6.17
2019-02-19T12:32:54.846Z,6.60
2019-02-19T12:35:23.333Z,5.67
2019-02-19T12:37:51.836Z,5.53
2019-02-19T12:40:20.236Z,5.73
2019-02-19T12:42:48.711Z,5.40
2019-02-19T12:45:17.202Z,5.67
2019-02-19T12:47:45.609Z,5.30
2019-02-19T12:50:18.556Z,7.97
2019-02-19T12:52:46.955Z,4.97
2019-02-19T12:55:15.419Z,4.77
2019-02-19T12:57:43.852Z,5.00
2019-02-19T13:00:15.026Z,4.10
2019-02-19T13:02:44.226Z,3.70
2019-02-19T13:05:14.126Z,4.00
2019-02-19T13:07:42.661Z,6.00
2019-02-19T13:10:12.201Z,5.00
2019-02-19T13:12:40.615Z,4.80
2019-02-19T13:15:12.107Z,3.80
2019-02-19T13:17:40.587Z,3.07
2019-02-19T13:20:14.353Z,3.33
2019-02-19T13:22:42.853Z,4.00
2019-02-19T13:25:11.996Z,3.53
2019-02-19T13:27:40.484Z,3.53
2019-02-19T13:30:17.429Z,4.67
2019-02-19T13:32:45.944Z,3.30
2019-02-19T13:35:14.447Z,3.40
2019-02-19T13:37:42.928Z,3.23
2019-02-19T13:40:13.667Z,3.50
2019-02-19T13:42:42.098Z,3.47
2019-02-19T13:45:13.464Z,3.33
2019-02-19T13:47:41.973Z,3.50
2019-02-19T13:50:13.631Z,3.37
2019-02-19T13:52:49.927Z,3.10
2019-02-19T13:55:19.958Z,3.13
2019-02-19T13:57:48.373Z,2.90
2019-02-19T14:00:18.600Z,3.63
2019-02-19T14:02:47.093Z,4.10
2019-02-19T14:05:15.525Z,3.10
2019-02-19T14:07:43.936Z,2.90
2019-02-19T14:10:12.917Z,3.13
2019-02-19T14:12:41.338Z,3.00
2019-02-19T14:15:16.045Z,3.30
2019-02-19T14:17:44.445Z,3.07
2019-02-19T14:20:14.507Z,3.50
2019-02-19T14:22:44.562Z,2.90
2019-02-19T14:25:26.631Z,3.33
2019-02-19T14:28:12.661Z,2.87
2019-02-19T14:30:42.771Z,3.20
2019-02-19T14:33:24.721Z,3.20
2019-02-19T14:36:09.827Z,3.10
2019-02-19T14:38:39.867Z,3.07
2019-02-19T14:41:26.264Z,3.20
2019-02-19T14:43:56.335Z,3.77
2019-02-19T14:46:29.255Z,2.67
2019-02-19T14:49:15.332Z,2.30
2019-02-19T14:51:57.153Z,3.03
2019-02-19T14:54:29.674Z,3.53
2019-02-19T14:57:42.606Z,2.73
2019-02-19T15:00:28.927Z,2.57
2019-02-19T15:03:15.159Z,2.60
2019-02-19T15:06:01.685Z,2.90
2019-02-19T15:08:31.751Z,2.90
2019-02-19T15:11:16.945Z,3.30
2019-02-19T15:13:47.050Z,3.13
2019-02-19T15:16:17.178Z,3.23
2019-02-19T15:18:52.942Z,4.43
2019-02-19T15:21:23.028Z,5.20
2019-02-19T15:23:56.267Z,3.30
2019-02-19T15:26:26.348Z,3.57
2019-02-19T15:29:02.280Z,3.93
2019-02-19T15:31:34.927Z,2.90
2019-02-19T15:34:07.021Z,3.00
2019-02-19T15:36:53.701Z,2.77
2019-02-19T15:42:24.685Z,3.53
2019-02-19T15:44:54.747Z,3.50
2019-02-19T15:47:24.796Z,4.90
2019-02-19T15:49:57.837Z,3.77
2019-02-19T15:52:27.887Z,3.20
2019-02-19T15:54:57.973Z,3.73
2019-02-19T15:57:33.928Z,3.27
2019-02-19T16:00:20.271Z,2.93
2019-02-19T16:02:59.167Z,2.87
2019-02-19T16:05:31.686Z,3.00
2019-02-19T16:08:04.743Z,2.50
2019-02-19T16:10:34.828Z,3.27
2019-02-19T16:13:08.055Z,2.20
2019-02-19T16:15:47.028Z,3.10
2019-02-19T16:18:19.931Z,2.70
2019-02-19T16:20:50.000Z,3.13
2019-02-19T16:23:20.058Z,3.47
2019-02-19T16:26:02.439Z,3.90
2019-02-19T16:28:35.707Z,4.27
2019-02-19T16:31:05.829Z,3.90
2019-02-19T16:33:41.520Z,4.23
2019-02-19T16:36:20.198Z,5.03
2019-02-19T16:38:53.045Z,4.13
2019-02-19T16:41:39.362Z,3.30
2019-02-19T16:44:15.139Z,3.87
2019-02-19T16:46:45.190Z,4.37
2019-02-19T16:49:18.009Z,3.47
2019-02-19T16:51:50.521Z,3.67
2019-02-19T16:54:32.315Z,3.40
2019-02-19T16:57:08.118Z,3.70
2019-02-19T16:59:53.279Z,4.10
2019-02-19T17:02:29.187Z,7.60
2019-02-19T17:05:01.975Z,5.10
2019-02-19T17:07:31.993Z,4.40
2019-02-19T17:10:20.403Z,5.10
2019-02-19T17:12:53.458Z,5.33
2019-02-19T17:15:23.618Z,4.10
2019-02-19T17:18:10.085Z,4.60
2019-02-19T17:20:58.453Z,4.50
2019-02-19T17:23:37.511Z,4.10
2019-02-19T17:26:13.498Z,4.50
2019-02-19T17:28:43.562Z,4.03
2019-02-19T17:31:25.843Z,3.40
2019-02-19T17:34:12.262Z,5.00
2019-02-19T17:36:42.392Z,3.60
2019-02-19T17:39:18.373Z,3.73
2019-02-19T17:41:57.334Z,3.57
2019-02-19T17:44:33.359Z,3.43
2019-02-19T17:47:14.412Z,3.70
2019-02-19T17:49:47.212Z,3.60
2019-02-19T17:52:32.163Z,3.77
2019-02-19T17:55:08.002Z,3.40
2019-02-19T17:57:44.104Z,3.00
2019-02-19T18:00:22.726Z,3.90
2019-02-19T18:02:58.346Z,3.50
2019-02-19T18:05:40.683Z,3.53
2019-02-19T18:08:25.551Z,3.90
2019-02-19T18:10:55.715Z,7.73
2019-02-19T18:13:42.035Z,4.60
2019-02-19T18:16:18.281Z,3.57
2019-02-19T18:18:53.006Z,3.63
2019-02-19T18:21:21.575Z,4.70
2019-02-19T18:23:50.066Z,3.77
2019-02-19T18:26:18.510Z,4.03
2019-02-19T18:28:46.899Z,3.10
2019-02-19T18:31:15.320Z,4.17
2019-02-19T18:33:43.824Z,3.57
2019-02-19T18:36:12.897Z,4.20
2019-02-19T18:38:41.361Z,3.80
2019-02-19T18:41:09.848Z,4.43
2019-02-19T18:43:38.293Z,3.83
2019-02-19T18:46:06.770Z,3.67
2019-02-19T18:48:35.192Z,3.83
2019-02-19T18:51:03.666Z,2.80
2019-02-19T18:53:32.107Z,3.50
2019-02-19T18:56:00.560Z,3.53
2019-02-19T18:58:29.127Z,3.60
2019-02-19T19:00:58.132Z,4.00
2019-02-19T19:03:26.604Z,5.30
2019-02-19T19:05:55.108Z,4.90
2019-02-19T19:08:23.506Z,6.73
2019-02-19T19:10:51.935Z,5.23
2019-02-19T19:13:20.414Z,5.60
2019-02-19T19:15:49.115Z,5.13
2019-02-19T19:18:19.197Z,5.00
2019-02-19T19:20:47.971Z,4.40
2019-02-19T19:23:16.360Z,4.33
2019-02-19T19:25:44.915Z,4.53
2019-02-19T19:28:13.409Z,4.53
2019-02-19T19:30:41.813Z,3.73
2019-02-19T19:33:10.241Z,4.50
2019-02-19T19:35:40.343Z,8.50
2019-02-19T19:38:08.812Z,4.77
2019-02-19T19:40:37.218Z,4.47
2019-02-19T19:43:05.674Z,7.07
2019-02-19T19:45:34.070Z,5.17
2019-02-19T19:48:02.601Z,5.67
2019-02-19T19:50:31.080Z,5.00
2019-02-19T19:52:59.564Z,5.00
2019-02-19T19:55:27.989Z,6.17
2019-02-19T19:57:56.457Z,5.30
2019-02-19T20:00:24.972Z,4.23
2019-02-19T20:02:53.451Z,7.50
2019-02-19T20:05:21.867Z,7.00
2019-02-19T20:07:50.311Z,6.70
2019-02-19T20:10:18.778Z,5.93
2019-02-19T20:12:47.214Z,6.63
2019-02-19T20:15:15.672Z,5.40
2019-02-19T20:17:44.062Z,5.07
2019-02-19T20:20:13.000Z,5.10
2019-02-19T20:22:41.418Z,5.40
2019-02-19T20:25:14.136Z,6.03
2019-02-19T20:27:42.591Z,6.50
2019-02-19T20:30:15.507Z,6.20
2019-02-19T20:32:44.000Z,5.43
2019-02-19T20:35:12.556Z,5.40
2019-02-19T20:37:41.284Z,6.17
2019-02-19T20:40:11.630Z,6.27
2019-02-19T20:42:40.143Z,6.90
2019-02-19T20:45:10.779Z,7.50
2019-02-19T20:47:39.209Z,6.60
2019-02-19T20:50:12.697Z,6.37
2019-02-19T20:52:41.174Z,5.00
2019-02-19T20:55:11.226Z,5.43
2019-02-19T20:57:39.662Z,8.80
2019-02-19T21:00:18.529Z,5.33
2019-02-19T21:02:47.497Z,5.30
2019-02-19T21:05:16.035Z,5.43
2019-02-19T21:07:45.299Z,5.70
2019-02-19T21:10:22.828Z,5.50
2019-02-19T21:12:51.260Z,4.90
2019-02-19T21:15:19.804Z,5.20
2019-02-19T21:17:48.273Z,5.90
2019-02-19T21:20:16.890Z,6.30
2019-02-19T21:22:45.382Z,5.30
2019-02-19T21:25:13.961Z,5.10
2019-02-19T21:27:42.353Z,4.63
2019-02-19T21:30:15.363Z,4.43
2019-02-19T21:32:43.791Z,4.87
2019-02-19T21:35:12.263Z,4.90
2019-02-19T21:37:40.681Z,4.50
2019-02-19T21:40:11.118Z,4.93
2019-02-19T21:42:39.548Z,5.60
2019-02-19T21:45:10.419Z,4.50
2019-02-19T21:47:38.848Z,5.10
2019-02-19T21:50:09.511Z,4.13
2019-02-19T21:52:37.923Z,5.00
2019-02-19T21:55:08.484Z,4.07
2019-02-19T21:57:36.991Z,4.07
2019-02-19T22:00:09.130Z,4.80
2019-02-19T22:02:37.593Z,5.70
2019-02-19T22:05:07.349Z,7.37
2019-02-19T22:07:35.760Z,5.03
2019-02-19T22:10:05.590Z,5.20
2019-02-19T22:12:33.995Z,4.70
2019-02-19T22:15:02.427Z,5.07
2019-02-19T22:17:30.922Z,5.47
2019-02-19T22:20:03.181Z,4.57
2019-02-19T22:22:29.727Z,5.00
2019-02-19T22:24:58.187Z,4.93
2019-02-19T22:27:26.598Z,5.33
2019-02-19T22:29:55.002Z,4.20
2019-02-19T22:32:23.435Z,4.80
2019-02-19T22:34:51.916Z,4.37
2019-02-19T22:37:20.347Z,4.63
2019-02-19T22:39:48.734Z,4.40
2019-02-19T22:42:17.231Z,4.40
2019-02-19T22:44:45.639Z,4.60
2019-02-19T22:47:14.051Z,4.20
2019-02-19T22:49:42.458Z,5.03
2019-02-19T22:52:12.839Z,5.27
2019-02-19T22:54:42.953Z,4.60
2019-02-19T22:57:11.440Z,4.60
2019-02-19T22:59:39.846Z,4.70
2019-02-19T23:02:10.152Z,4.70
2019-02-19T23:04:38.574Z,4.17
2019-02-19T23:07:07.042Z,4.40
2019-02-19T23:09:35.458Z,4.73
2019-02-19T23:12:03.849Z,4.60
2019-02-19T23:14:32.263Z,5.13
2019-02-19T23:17:00.667Z,4.20
2019-02-19T23:19:29.070Z,4.13
2019-02-19T23:21:57.531Z,5.30
2019-02-19T23:24:25.997Z,4.30
2019-02-19T23:26:54.434Z,4.33
2019-02-19T23:29:22.842Z,3.97
2019-02-19T23:31:51.262Z,4.37
2019-02-19T23:34:19.687Z,3.80
2019-02-19T23:36:49.730Z,4.40
2019-02-19T23:39:18.165Z,4.67
2019-02-19T23:41:46.573Z,4.40
2019-02-19T23:44:14.967Z,4.67
2019-02-19T23:46:44.074Z,4.00
2019-02-19T23:49:12.566Z,4.20
2019-02-19T23:51:41.066Z,4.57
2019-02-19T23:54:09.496Z,3.70
2019-02-19T23:56:37.920Z,3.73
2019-02-19T23:59:06.329Z,4.30
